Hlavní strana
METAR-TAF:

METAR-TAF

Letiště :

Indianapolis, Indiana, Spojené státy americké

zeměpisná šířka: 39-49-30N, zeměpisná délka: 086-17-45W, výška: 250 m

Aktuální stav počasí

Zpráva byla vytvořena před 23 minutami, v 07:53 UTC
Východoseverovýchodní vítr 14 kt s nárazy do 21 kt
Teplota -1°C
Vlhkost vzduchu 86%
Tlak 1020 hPa
Viditelnost: 11.3 km
Skoro jasno ve výšce 1200 ft
Skoro jasno ve výšce 3700 ft
Zataženo ve výšce 8000 ft
(slabý) mrznoucí, déšť

METAR: KEYE 150753Z AUTO 07014G21KT 7SM -FZRA FEW012 FEW037 OVC080 M01/M03 A3013 RMK AO2 SLP211 P0004 I1003 T10111028

Čas: 03:16 (08:16 UTC)


TAF: chybějící

Stav a předpovědi počasí z více než 4 000 letišť (zprávy METAR a TAF).

Červené a žluté tečky na mapě představují dostupné meteorologické stanice.

Když kurzor umístíte na tečku, zobrazí se název stanice.

Pak kliknutím zobrazíte stav a předpověď počasí.

Chcete-li změnit mapu, kliknutím na zelené tlačítko se znaménkem +mapu přiblížíte, kliknutím na zelené tlačítko se znaménkem – mapu oddálíte a kliknutím na zelené šipky přejdete na sousední mapy.


METAR-TAF: